Time;durP1;ratioP1;P1;durP2;ratioP2;P2;SDS_P1;SDS_P2;PMS_P1;PMS_P2;Temp;Humidity;BMP_temperature;BMP_pressure;BME280_temperature;BME280_humidity;BME280_pressure;Samples;Min_cycle;Max_cycle;Signal;HPM_P1;HPM_P2
2022/12/13 00:00:13;;;;;;;34.87;24.37;;;;;;;-6.24;61.16;99087.81;10510005;28;20592;-62
2022/12/13 00:05:15;;;;;;;36.03;23.07;;;;;;;-7.19;61.99;99163.66;10514778;28;20238;-62
2022/12/13 00:10:17;;;;;;;34.53;21.50;;;;;;;-6.34;60.25;99114.53;10514303;28;20253;-62
2022/12/13 00:15:19;;;;;;;37.73;27.97;;;;;;;-6.71;61.15;99134.94;10514497;28;20741;-61
2022/12/13 00:20:20;;;;;;;35.80;25.67;;;;;;;-5.87;59.16;99095.16;10511100;28;20237;-62
2022/12/13 00:25:22;;;;;;;48.90;29.43;;;;;;;-6.01;60.05;99059.53;10515090;28;20883;-62
2022/12/13 00:30:24;;;;;;;30.40;20.67;;;;;;;-5.55;58.22;99084.47;10507769;28;20638;-61
2022/12/13 00:35:26;;;;;;;34.13;21.57;;;;;;;-6.40;59.80;99120.97;10509893;28;21165;-62
2022/12/13 00:40:27;;;;;;;35.17;24.33;;;;;;;-6.12;58.96;99103.66;10519520;28;20765;-62
2022/12/13 00:45:29;;;;;;;36.23;25.40;;;;;;;-6.35;59.40;99100.69;10518072;28;20814;-62
2022/12/13 00:50:31;;;;;;;51.37;32.57;;;;;;;-6.67;60.25;99100.84;10506513;28;20248;-62
2022/12/13 00:55:33;;;;;;;52.30;33.20;;;;;;;-6.14;58.71;99075.09;10512392;28;20249;-63
2022/12/13 01:00:35;;;;;;;35.20;22.90;;;;;;;-5.44;57.96;99031.63;10505162;28;20237;-62
2022/12/13 01:05:36;;;;;;;62.83;36.83;;;;;;;-6.56;59.39;99097.59;10516401;28;20378;-62
2022/12/13 01:10:58;;;;;;;41.30;24.53;;;;;;;-6.48;58.68;99102.34;10515308;28;20254;-63
2022/12/13 01:16:03;;;;;;;45.57;24.43;;;;;;;-6.09;58.80;99048.75;10514219;28;20699;-62
2022/12/13 01:21:14;;;;;;;34.63;20.13;;;;;;;-6.11;58.42;99066.25;10513463;28;20251;-61
2022/12/13 01:26:19;;;;;;;39.27;23.13;;;;;;;-6.91;60.15;99082.31;10505141;28;20245;-60
2022/12/13 01:31:20;;;;;;;36.73;22.10;;;;;;;-6.82;58.73;99128.59;10511749;28;20324;-61
2022/12/13 01:36:23;;;;;;;37.90;21.77;;;;;;;-6.09;59.32;98997.47;10512005;28;20233;-62
2022/12/13 01:41:30;;;;;;;33.83;20.83;;;;;;;-6.37;58.81;99052.22;10507183;28;20326;-61
2022/12/13 01:46:34;;;;;;;29.93;19.80;;;;;;;-7.17;59.85;99135.81;10513064;28;20296;-62
2022/12/13 01:51:38;;;;;;;27.50;18.53;;;;;;;-6.69;60.23;99032.44;10509917;28;20241;-62
2022/12/13 01:56:43;;;;;;;29.40;18.73;;;;;;;-6.51;59.09;99066.91;10510148;28;20266;-63
2022/12/13 02:01:49;;;;;;;23.60;16.43;;;;;;;-7.32;59.80;99166.09;10504480;28;20241;-62
2022/12/13 02:06:52;;;;;;;27.60;19.43;;;;;;;-6.40;59.13;99024.63;10510525;28;20236;-62
2022/12/13 02:11:54;;;;;;;29.13;17.87;;;;;;;-6.98;59.04;99122.59;10507357;28;20256;-63
2022/12/13 02:17:16;;;;;;;27.13;17.43;;;;;;;-6.74;59.76;99037.06;10510735;28;20721;-61
2022/12/13 02:22:48;;;;;;;30.73;19.30;;;;;;;-7.00;59.40;99088.03;10501213;28;20227;-62
2022/12/13 02:28:01;;;;;;;28.20;19.43;;;;;;;-6.67;59.37;99030.56;10508488;28;20243;-65
2022/12/13 02:33:05;;;;;;;26.20;17.27;;;;;;;-6.63;58.52;99063.28;10503404;28;20293;-62
2022/12/13 02:38:16;;;;;;;27.20;18.40;;;;;;;-7.00;59.15;99090.63;10505521;28;20236;-62
2022/12/13 02:43:41;;;;;;;28.37;19.00;;;;;;;-7.21;59.11;99121.31;10513430;28;20631;-61
2022/12/13 02:48:50;;;;;;;25.50;17.17;;;;;;;-6.44;58.63;99003.16;10484912;28;20243;-61
2022/12/13 02:53:51;;;;;;;27.90;18.37;;;;;;;-6.92;58.66;99087.59;10506099;28;20657;-62
2022/12/13 02:58:55;;;;;;;26.70;19.20;;;;;;;-7.30;59.85;99065.44;10479044;28;20258;-62
2022/12/13 03:04:11;;;;;;;29.77;18.03;;;;;;;-7.07;59.90;99030.31;10470886;28;20281;-61
2022/12/13 03:09:25;;;;;;;29.23;19.40;;;;;;;-6.97;60.14;99000.22;10500829;28;20228;-61
2022/12/13 03:14:28;;;;;;;30.50;19.23;;;;;;;-7.02;59.33;99037.88;10467157;28;20249;-62
2022/12/13 03:19:32;;;;;;;29.17;18.13;;;;;;;-6.93;59.39;99000.88;10509931;28;20246;-62
2022/12/13 03:24:34;;;;;;;33.47;20.40;;;;;;;-7.85;60.90;99082.38;10466005;28;20522;-62
2022/12/13 03:29:35;;;;;;;32.03;18.60;;;;;;;-6.84;59.58;98989.94;10519248;28;20244;-63
2022/12/13 03:34:37;;;;;;;30.37;19.70;;;;;;;-7.24;59.90;99013.09;10461506;28;20239;-62
2022/12/13 03:39:45;;;;;;;31.70;19.00;;;;;;;-7.25;60.84;98975.00;10467691;28;20234;-61
2022/12/13 03:44:47;;;;;;;28.20;19.40;;;;;;;-7.23;59.91;99019.13;10461865;28;20249;-62
2022/12/13 03:49:48;;;;;;;37.00;22.70;;;;;;;-7.37;60.64;99006.94;10464962;28;20221;-61
2022/12/13 03:54:55;;;;;;;31.47;21.47;;;;;;;-7.44;60.81;99031.63;10460617;28;20240;-61
2022/12/13 03:59:56;;;;;;;32.37;20.67;;;;;;;-7.32;60.83;99007.50;10461129;28;20724;-62
2022/12/13 04:04:58;;;;;;;32.57;20.60;;;;;;;-7.47;60.45;99044.78;10464274;28;20237;-63
2022/12/13 04:10:02;;;;;;;32.33;20.90;;;;;;;-7.30;60.75;99012.63;10469748;28;20635;-61
2022/12/13 04:15:24;;;;;;;29.27;17.47;;;;;;;-7.47;61.00;99014.41;10472946;28;20236;-62
2022/12/13 04:20:26;;;;;;;37.40;21.40;;;;;;;-7.32;61.13;98969.34;10470045;28;21644;-62
2022/12/13 04:25:27;;;;;;;34.90;20.67;;;;;;;-7.32;59.72;99044.72;10472241;28;20227;-62
2022/12/13 04:30:29;;;;;;;32.23;20.30;;;;;;;-7.39;60.55;99022.63;10469565;28;20511;-61
2022/12/13 04:35:31;;;;;;;37.37;20.40;;;;;;;-7.58;60.44;99041.03;10469503;28;20802;-65
2022/12/13 04:40:32;;;;;;;32.17;20.23;;;;;;;-7.70;60.16;99078.94;10471028;28;20239;-62
2022/12/13 04:45:34;;;;;;;32.50;21.00;;;;;;;-7.30;60.96;98977.06;10476629;28;20252;-61
2022/12/13 04:50:36;;;;;;;38.33;22.00;;;;;;;-7.74;60.46;99069.59;10474538;28;20243;-63
2022/12/13 04:55:38;;;;;;;33.23;20.27;;;;;;;-8.12;60.75;99124.47;10476259;28;20324;-64
2022/12/13 05:00:40;;;;;;;32.73;21.20;;;;;;;-7.54;59.51;99063.31;10467502;28;20616;-62
2022/12/13 05:05:44;;;;;;;30.60;19.23;;;;;;;-7.62;60.31;99039.50;10471388;28;20231;-61
2022/12/13 05:10:46;;;;;;;34.17;19.53;;;;;;;-7.18;59.82;98983.28;10469620;28;20231;-60
2022/12/13 05:15:59;;;;;;;30.03;19.00;;;;;;;-6.77;59.23;98947.00;10467018;28;20282;-62
2022/12/13 05:21:07;;;;;;;30.17;17.90;;;;;;;-7.88;60.09;99067.78;10473294;28;20229;-62
2022/12/13 05:26:08;;;;;;;33.43;20.53;;;;;;;-7.26;60.36;98956.91;10468372;28;20283;-62
2022/12/13 05:31:11;;;;;;;32.40;19.70;;;;;;;-7.74;60.99;98989.06;10461365;28;20285;-62
2022/12/13 05:36:24;;;;;;;33.33;20.90;;;;;;;-8.02;61.19;99043.47;10464040;28;20733;-62
2022/12/13 05:41:30;;;;;;;30.20;20.43;;;;;;;-7.68;60.17;99002.66;10469104;28;20620;-61
2022/12/13 05:46:32;;;;;;;32.37;20.47;;;;;;;-7.56;60.75;98955.19;10465082;28;20246;-61
2022/12/13 05:51:42;;;;;;;33.53;20.93;;;;;;;-7.12;59.74;98938.72;10471536;28;20706;-63
2022/12/13 05:56:43;;;;;;;35.47;21.00;;;;;;;-6.97;58.91;98940.41;10467717;28;20244;-62
2022/12/13 06:01:45;;;;;;;33.57;20.07;;;;;;;-7.19;59.56;98953.03;10460399;28;20233;-62
2022/12/13 06:06:47;;;;;;;31.90;20.60;;;;;;;-7.73;59.64;99031.50;10464353;28;20240;-61
2022/12/13 06:11:52;;;;;;;33.47;20.63;;;;;;;-7.74;60.00;99003.84;10470246;28;20260;-62
2022/12/13 06:17:02;;;;;;;29.47;19.17;;;;;;;-7.34;60.11;98932.19;10463996;28;20320;-61
2022/12/13 06:22:04;;;;;;;29.00;19.30;;;;;;;-8.16;60.36;99052.00;10459887;28;20770;-61
2022/12/13 06:27:06;;;;;;;31.67;20.63;;;;;;;-8.44;60.53;99097.63;10467286;28;20438;-62
2022/12/13 06:32:07;;;;;;;29.07;19.77;;;;;;;-7.20;59.95;98918.38;10467100;28;20881;-62
2022/12/13 06:37:12;;;;;;;32.13;19.93;;;;;;;-7.79;60.36;98998.06;10461081;28;20871;-62
2022/12/13 06:42:16;;;;;;;32.63;21.30;;;;;;;-7.94;61.16;98997.16;10467269;28;20236;-63
2022/12/13 06:47:24;;;;;;;31.93;20.13;;;;;;;-7.34;60.05;98949.56;10458487;28;20239;-62
2022/12/13 06:52:33;;;;;;;33.60;20.67;;;;;;;-7.34;59.23;98997.19;10466682;28;20684;-63
2022/12/13 06:57:34;;;;;;;29.07;20.50;;;;;;;-7.59;59.14;99043.72;10460266;28;20240;-62
2022/12/13 07:02:36;;;;;;;32.47;20.53;;;;;;;-7.81;60.17;99031.09;10465200;28;20242;-62
2022/12/13 07:07:39;;;;;;;33.43;20.00;;;;;;;-7.84;59.63;99058.06;10466796;28;20239;-64
2022/12/13 07:12:40;;;;;;;31.20;20.47;;;;;;;-7.97;60.25;99060.50;10459478;28;20307;-63
2022/12/13 07:17:42;;;;;;;30.57;18.20;;;;;;;-7.77;59.98;99036.03;10491075;28;20237;-63
2022/12/13 07:22:45;;;;;;;34.73;20.80;;;;;;;-7.11;58.95;98975.97;10463506;28;20240;-61
2022/12/13 07:28:00;;;;;;;34.30;21.27;;;;;;;-7.53;59.51;99023.41;10459625;28;20259;-65
2022/12/13 07:33:04;;;;;;;32.60;20.63;;;;;;;-7.11;58.89;98999.38;10462940;28;20316;-62
2022/12/13 07:38:07;;;;;;;33.87;20.30;;;;;;;-7.35;59.64;99000.72;10460805;28;20287;-61
2022/12/13 07:43:10;;;;;;;34.40;21.20;;;;;;;-6.88;58.55;98988.44;10461995;28;20235;-62
2022/12/13 07:48:13;;;;;;;32.43;21.07;;;;;;;-6.71;58.57;98966.59;10474691;28;20233;-62
2022/12/13 07:53:14;;;;;;;32.97;21.53;;;;;;;-7.30;59.25;99046.41;10475060;28;20234;-61
2022/12/13 07:58:17;;;;;;;34.87;22.03;;;;;;;-7.44;58.94;99066.22;10470494;28;20247;-64
2022/12/13 08:03:18;;;;;;;29.93;19.17;;;;;;;-7.41;58.99;99054.84;10471740;28;20650;-62
2022/12/13 08:08:26;;;;;;;33.23;20.03;;;;;;;-6.90;58.54;99015.50;10462966;28;20239;-62
2022/12/13 08:13:33;;;;;;;32.77;20.77;;;;;;;-7.46;60.24;99028.28;10470160;28;20288;-62
2022/12/13 08:18:35;;;;;;;34.03;20.40;;;;;;;-6.93;58.60;99000.06;10467061;28;20305;-62
2022/12/13 08:23:36;;;;;;;29.47;20.47;;;;;;;-7.33;59.26;99065.66;10468641;28;20737;-62
2022/12/13 08:28:38;;;;;;;29.53;19.27;;;;;;;-6.83;58.55;99009.81;10473471;28;20291;-61
2022/12/13 08:33:42;;;;;;;32.63;20.47;;;;;;;-7.25;59.24;99047.00;10469246;28;20258;-61
2022/12/13 08:38:44;;;;;;;29.67;19.03;;;;;;;-7.23;57.99;99090.19;10463901;28;20636;-62
2022/12/13 08:43:46;;;;;;;29.63;19.13;;;;;;;-7.57;59.46;99086.03;10465520;28;20238;-62
2022/12/13 08:48:48;;;;;;;30.53;18.70;;;;;;;-7.86;59.60;99132.63;10466624;28;20237;-61
2022/12/13 08:53:50;;;;;;;32.10;19.57;;;;;;;-7.14;58.98;99055.84;10465119;28;20669;-63
2022/12/13 08:58:52;;;;;;;28.43;18.67;;;;;;;-6.32;58.21;98992.88;10468648;28;20653;-62
2022/12/13 09:03:54;;;;;;;26.33;18.43;;;;;;;-5.80;57.25;98979.16;10468973;28;20649;-62
2022/12/13 09:08:56;;;;;;;29.27;19.47;;;;;;;-6.58;58.14;99043.00;10462848;28;20327;-62
2022/12/13 09:14:06;;;;;;;27.90;18.57;;;;;;;-6.48;58.07;99025.06;10471257;28;20230;-63
2022/12/13 09:19:14;;;;;;;24.23;15.63;;;;;;;-5.57;56.81;99000.31;10469002;28;20259;-61
2022/12/13 09:24:27;;;;;;;25.17;16.83;;;;;;;-6.04;56.12;99057.13;10467601;28;20236;-62
2022/12/13 09:29:37;;;;;;;29.17;16.77;;;;;;;-5.20;55.89;98985.66;10466267;28;20244;-63
2022/12/13 09:34:39;;;;;;;27.83;18.57;;;;;;;-6.78;56.79;99121.44;10468419;28;20250;-63
2022/12/13 09:39:41;;;;;;;24.33;17.23;;;;;;;-5.81;56.12;99032.22;10466842;28;20240;-63
2022/12/13 09:44:58;;;;;;;20.67;15.20;;;;;;;-6.79;56.81;99106.78;10464381;28;20234;-63
2022/12/13 09:50:25;;;;;;;19.97;14.57;;;;;;;-6.27;56.51;99063.75;10474091;28;20239;-66
2022/12/13 09:55:31;;;;;;;22.70;17.20;;;;;;;-5.78;56.02;99015.56;10502973;28;20237;-66
2022/12/13 10:00:35;;;;;;;25.07;15.33;;;;;;;-6.41;55.68;99109.69;10472418;28;20728;-64
2022/12/13 10:05:38;;;;;;;23.27;15.63;;;;;;;-6.19;56.13;99058.91;10511076;28;20266;-66
2022/12/13 10:10:42;;;;;;;24.83;15.73;;;;;;;-5.75;55.67;99052.66;10472822;28;20246;-65
2022/12/13 10:15:55;;;;;;;24.80;16.27;;;;;;;-5.43;55.44;99020.25;10508628;28;20245;-65
2022/12/13 10:20:58;;;;;;;22.30;15.10;;;;;;;-5.91;55.92;99046.78;10477312;28;20237;-65
2022/12/13 10:26:00;;;;;;;20.27;14.50;;;;;;;-5.46;55.29;99018.69;10506372;28;20662;-65
2022/12/13 10:31:05;;;;;;;22.13;15.43;;;;;;;-5.13;54.69;99017.41;10477927;28;20235;-66
2022/12/13 10:36:14;;;;;;;24.97;15.93;;;;;;;-5.88;55.51;99068.28;10497763;28;20238;-66
2022/12/13 10:41:30;;;;;;;23.40;16.30;;;;;;;-5.00;54.86;99015.66;10482698;28;20234;-65
2022/12/13 10:46:32;;;;;;;22.77;16.93;;;;;;;-5.63;55.09;99073.69;10503066;28;20317;-66
2022/12/13 10:51:39;;;;;;;23.57;14.17;;;;;;;-5.18;54.36;99072.50;10487839;28;20236;-65
2022/12/13 10:56:49;;;;;;;23.67;16.20;;;;;;;-5.36;54.67;99058.91;10493383;28;20570;-66
2022/12/13 11:06:18;;;;;;;22.17;16.50;;;;;;;-6.65;58.37;99109.38;10475432;27;20725;-66
2022/12/13 11:11:29;;;;;;;19.73;12.83;;;;;;;-7.04;58.21;99136.78;10332961;28;20237;-66
2022/12/13 11:16:39;;;;;;;21.00;13.67;;;;;;;-5.86;57.69;99044.72;10332411;28;20250;-66
2022/12/13 11:21:47;;;;;;;22.57;16.53;;;;;;;-6.12;57.34;99080.19;10330328;28;20357;-62
2022/12/13 11:26:55;;;;;;;23.37;16.30;;;;;;;-5.32;56.63;99028.22;10322788;28;20620;-62
2022/12/13 11:32:15;;;;;;;23.73;16.20;;;;;;;-5.76;56.86;99048.41;10328137;28;20265;-61
2022/12/13 11:38:10;;;;;;;18.97;15.13;;;;;;;-4.97;55.87;99015.44;10328591;28;20327;-62
2022/12/13 11:43:14;;;;;;;21.80;15.63;;;;;;;-5.36;55.94;99013.69;10318601;28;20773;-64
2022/12/13 11:48:20;;;;;;;23.50;15.63;;;;;;;-5.47;55.64;99045.72;10332236;28;20252;-62
2022/12/13 11:53:43;;;;;;;21.47;14.80;;;;;;;-5.89;56.47;99057.94;10328646;28;20400;-63
2022/12/13 11:59:15;;;;;;;23.03;16.10;;;;;;;-5.77;56.85;99043.28;10330597;28;20241;-61
2022/12/13 12:04:49;;;;;;;26.60;15.20;;;;;;;-4.68;55.58;98986.53;10326038;28;20359;-63
2022/12/13 12:10:13;;;;;;;23.50;15.80;;;;;;;-5.28;55.91;99020.06;10327089;28;20236;-63
2022/12/13 12:15:22;;;;;;;20.20;14.00;;;;;;;-5.21;55.28;99022.28;10317832;28;20238;-63
2022/12/13 12:21:00;;;;;;;20.67;14.83;;;;;;;-5.17;55.03;99022.00;10299005;28;20264;-62
2022/12/13 12:26:08;;;;;;;18.80;14.33;;;;;;;-5.05;55.08;99009.91;10302731;28;20252;-62
2022/12/13 12:31:28;;;;;;;21.00;14.40;;;;;;;-4.78;54.44;99022.88;10302359;28;20243;-62
2022/12/13 12:36:35;;;;;;;19.70;14.23;;;;;;;-4.70;54.53;99014.53;10300617;28;20325;-62
2022/12/13 12:41:47;;;;;;;20.13;14.40;;;;;;;-5.03;54.54;99018.47;10292243;28;20236;-63
2022/12/13 12:47:01;;;;;;;21.00;14.63;;;;;;;-4.60;54.36;99006.88;10301794;28;20594;-63
2022/12/13 12:52:25;;;;;;;18.77;14.07;;;;;;;-5.33;54.62;99070.88;10296472;28;20237;-62
2022/12/13 12:57:46;;;;;;;21.13;14.87;;;;;;;-5.06;54.17;99049.97;10296540;28;20281;-63
2022/12/13 13:02:56;;;;;;;21.50;14.77;;;;;;;-4.32;53.52;99002.34;10302751;28;20233;-62
2022/12/13 13:08:14;;;;;;;21.07;14.30;;;;;;;-4.55;53.97;99017.81;10304394;28;20334;-63
2022/12/13 13:13:45;;;;;;;20.13;14.57;;;;;;;-4.85;54.44;99013.78;10300044;28;20240;-62
2022/12/13 13:18:54;;;;;;;19.70;14.20;;;;;;;-5.57;55.41;99057.66;10301922;28;20240;-62
2022/12/13 13:24:08;;;;;;;19.83;13.47;;;;;;;-4.66;54.39;99012.53;10302259;28;20232;-62
2022/12/13 13:29:28;;;;;;;22.23;14.43;;;;;;;-5.17;54.46;99055.91;10299051;28;20239;-62
2022/12/13 13:34:33;;;;;;;23.70;14.47;;;;;;;-4.68;54.44;99025.69;10298809;28;20239;-62
2022/12/13 13:39:59;;;;;;;20.30;13.87;;;;;;;-4.87;54.41;99046.97;10299219;28;20299;-62
2022/12/13 13:45:18;;;;;;;18.63;13.60;;;;;;;-4.62;53.54;99047.94;10382049;28;20233;-63
2022/12/13 13:50:50;;;;;;;23.40;14.40;;;;;;;-4.84;54.28;99057.19;10386523;28;20254;-63
2022/12/13 13:56:09;;;;;;;20.90;13.63;;;;;;;-4.93;54.05;99055.22;10380660;28;20234;-63
2022/12/13 14:01:41;;;;;;;19.37;13.63;;;;;;;-4.72;53.71;99047.72;10385223;28;20914;-63
2022/12/13 14:06:59;;;;;;;20.43;13.80;;;;;;;-5.15;54.24;99074.06;10382552;28;20242;-62
2022/12/13 14:12:23;;;;;;;21.47;14.37;;;;;;;-5.37;54.44;99083.28;10384730;28;20728;-63
2022/12/13 14:17:56;;;;;;;17.93;12.07;;;;;;;-5.16;54.17;99067.19;10382575;28;20234;-63
2022/12/13 14:23:03;;;;;;;20.53;13.73;;;;;;;-5.01;53.73;99073.16;10385212;28;20695;-63
2022/12/13 14:28:17;;;;;;;20.73;14.07;;;;;;;-4.97;53.82;99074.63;10380782;28;20236;-63
2022/12/13 14:33:21;;;;;;;22.17;14.33;;;;;;;-4.72;54.42;99032.91;10380497;28;20251;-62
2022/12/13 14:38:29;;;;;;;20.03;13.80;;;;;;;-4.36;53.87;99002.56;10376175;28;20248;-62
2022/12/13 14:43:32;;;;;;;20.40;13.40;;;;;;;-5.33;54.93;99055.25;10389862;28;20247;-62
2022/12/13 14:48:53;;;;;;;17.50;13.00;;;;;;;-5.40;54.74;99051.38;10387822;28;20242;-63
2022/12/13 14:53:55;;;;;;;21.10;15.10;;;;;;;-5.12;54.75;99047.78;10380919;28;20243;-62
2022/12/13 14:59:02;;;;;;;21.60;13.67;;;;;;;-5.31;55.24;99050.75;10384352;28;20320;-62
2022/12/13 15:04:25;;;;;;;19.53;13.60;;;;;;;-4.47;54.32;98965.06;10380160;28;20233;-63
2022/12/13 15:09:29;;;;;;;19.87;13.73;;;;;;;-5.27;55.06;99026.16;10384866;28;20613;-63
2022/12/13 15:14:31;;;;;;;19.47;13.47;;;;;;;-5.09;54.88;99008.41;10389561;28;20370;-62
2022/12/13 15:19:41;;;;;;;20.87;13.83;;;;;;;-4.56;53.96;98997.91;10386370;28;20247;-62
2022/12/13 15:24:50;;;;;;;21.77;14.33;;;;;;;-4.84;54.72;98991.13;10378048;28;20322;-62
2022/12/13 15:29:53;;;;;;;21.10;14.67;;;;;;;-5.18;54.95;99024.72;10382124;28;20243;-63
2022/12/13 15:34:55;;;;;;;21.73;13.77;;;;;;;-4.74;55.34;98971.28;10374828;28;20225;-62
2022/12/13 15:40:04;;;;;;;20.23;14.30;;;;;;;-4.90;55.06;98980.16;10375461;28;20582;-62
2022/12/13 15:45:24;;;;;;;21.77;14.73;;;;;;;-5.10;55.49;98997.16;10374999;28;20963;-62
2022/12/13 15:50:39;;;;;;;19.43;13.17;;;;;;;-4.79;55.20;98974.19;10384139;28;20285;-67
2022/12/13 15:55:49;;;;;;;21.23;14.57;;;;;;;-6.15;56.36;99043.91;10368193;28;20243;-67
2022/12/13 16:00:50;;;;;;;20.63;13.90;;;;;;;-5.20;54.83;99010.94;10403313;28;20232;-68
2022/12/13 16:05:54;;;;;;;20.83;13.20;;;;;;;-5.51;56.20;99007.72;10387020;28;20243;-68
2022/12/13 16:10:57;;;;;;;19.03;13.63;;;;;;;-5.34;55.70;98999.63;10401442;28;20239;-65
2022/12/13 16:16:01;;;;;;;18.93;13.23;;;;;;;-4.76;54.80;98967.94;10392252;28;20240;-67
2022/12/13 16:21:10;;;;;;;19.67;14.30;;;;;;;-5.72;55.81;99025.59;10400034;28;20238;-66
2022/12/13 16:26:12;;;;;;;18.97;13.83;;;;;;;-5.47;55.37;99011.81;10400904;28;20590;-68
2022/12/13 16:31:22;;;;;;;20.07;13.83;;;;;;;-4.76;55.13;98962.72;10398862;28;20240;-68
2022/12/13 16:36:24;;;;;;;21.70;13.67;;;;;;;-5.23;55.52;98985.88;10401346;28;20305;-68
2022/12/13 16:41:26;;;;;;;21.47;12.87;;;;;;;-5.47;55.87;98983.13;10396218;28;20271;-67
2022/12/13 16:46:29;;;;;;;20.27;13.60;;;;;;;-5.31;55.46;98988.16;10390723;28;20319;-64
2022/12/13 16:51:51;;;;;;;21.53;13.83;;;;;;;-5.23;55.28;98980.66;10393404;28;20239;-65
2022/12/13 16:56:53;;;;;;;16.93;12.93;;;;;;;-5.24;55.41;98973.78;10393579;28;20237;-64
2022/12/13 17:01:55;;;;;;;21.83;14.23;;;;;;;-4.93;55.23;98963.88;10390984;28;20864;-64
2022/12/13 17:06:56;;;;;;;22.37;13.63;;;;;;;-4.58;54.63;98939.72;10383670;28;20238;-68
2022/12/13 17:11:58;;;;;;;18.17;12.53;;;;;;;-4.89;54.62;98960.09;10377492;28;20235;-65
2022/12/13 17:17:00;;;;;;;17.13;13.17;;;;;;;-4.68;54.59;98923.00;10379773;28;21017;-67
2022/12/13 17:22:02;;;;;;;18.93;13.23;;;;;;;-5.28;55.26;98967.91;10379810;28;20244;-68
2022/12/13 17:27:15;;;;;;;20.36;13.54;;;;;;;-4.60;54.56;98925.91;9873211;28;10001772;-68
2022/12/13 17:32:16;;;;;;;17.90;12.73;;;;;;;-5.74;56.01;98986.59;10317193;28;20738;-69
2022/12/13 17:37:18;;;;;;;17.60;13.60;;;;;;;-5.33;54.76;98979.59;10305013;28;20239;-65
2022/12/13 17:42:20;;;;;;;18.43;13.43;;;;;;;-5.29;54.74;98960.19;10311614;28;20238;-65
2022/12/13 17:47:22;;;;;;;20.60;12.67;;;;;;;-4.02;53.76;98866.06;10304469;28;20238;-65
2022/12/13 17:52:23;;;;;;;19.53;13.23;;;;;;;-4.83;54.38;98925.75;10301851;28;20237;-66
2022/12/13 17:57:25;;;;;;;21.10;13.77;;;;;;;-4.31;53.90;98895.13;10307595;28;20323;-65
2022/12/13 18:02:27;;;;;;;19.13;13.80;;;;;;;-4.92;55.12;98914.19;10308437;28;20911;-66
2022/12/13 18:07:28;;;;;;;20.90;13.27;;;;;;;-5.25;54.57;98971.28;10326857;28;20249;-65
2022/12/13 18:12:31;;;;;;;21.73;14.37;;;;;;;-3.88;53.53;98873.69;10344866;28;20301;-66
2022/12/13 18:17:33;;;;;;;17.10;12.87;;;;;;;-5.73;55.10;98971.78;10348350;28;20315;-65
2022/12/13 18:22:55;;;;;;;16.93;12.40;;;;;;;-4.30;53.63;98877.69;10319465;28;20666;-65
2022/12/13 18:27:56;;;;;;;21.53;13.53;;;;;;;-5.20;53.96;98935.28;10305435;28;20774;-65
2022/12/13 18:33:02;;;;;;;21.10;12.63;;;;;;;-4.83;54.22;98885.78;10306535;28;20237;-65
2022/12/13 18:38:03;;;;;;;18.70;13.63;;;;;;;-5.33;53.87;98920.44;10306928;28;20238;-65
2022/12/13 18:43:05;;;;;;;20.20;13.90;;;;;;;-4.86;53.40;98897.25;10308686;28;20304;-65
2022/12/13 18:48:07;;;;;;;18.27;12.43;;;;;;;-5.25;54.21;98891.25;10313267;28;20241;-65
2022/12/13 18:53:09;;;;;;;17.33;12.37;;;;;;;-5.39;54.15;98896.53;10313603;28;20260;-65
2022/12/13 18:58:10;;;;;;;18.37;13.23;;;;;;;-5.05;53.79;98863.78;10311637;28;20799;-65
2022/12/13 19:03:12;;;;;;;17.07;12.63;;;;;;;-6.19;54.89;98939.09;10315538;28;20241;-65
2022/12/13 19:08:13;;;;;;;21.43;13.63;;;;;;;-5.50;54.88;98884.25;10313452;28;20272;-66
2022/12/13 19:13:15;;;;;;;23.07;14.80;;;;;;;-5.07;54.21;98854.38;10314072;28;20240;-65
2022/12/13 19:18:17;;;;;;;20.60;12.87;;;;;;;-5.39;55.19;98871.31;10301257;28;20236;-69
2022/12/13 19:23:19;;;;;;;19.33;14.27;;;;;;;-4.75;53.92;98826.00;10325373;28;20272;-68
2022/12/13 19:28:22;;;;;;;21.67;13.37;;;;;;;-4.91;53.36;98868.88;10325562;28;20242;-70
2022/12/13 19:33:25;;;;;;;17.63;12.27;;;;;;;-4.72;53.55;98854.50;10350478;28;20235;-69
2022/12/13 19:38:28;;;;;;;18.80;13.03;;;;;;;-4.90;53.38;98882.75;10359198;28;20243;-68
2022/12/13 19:43:30;;;;;;;18.00;13.30;;;;;;;-5.26;54.10;98876.53;10376171;28;20345;-67
2022/12/13 19:48:33;;;;;;;17.57;12.73;;;;;;;-4.77;53.91;98836.59;10380772;28;20243;-67
2022/12/13 19:53:36;;;;;;;17.97;12.97;;;;;;;-4.94;53.22;98870.84;10380456;28;20236;-68
2022/12/13 19:58:38;;;;;;;16.67;11.57;;;;;;;-4.91;53.42;98840.16;10380505;28;20263;-66
2022/12/13 20:03:44;;;;;;;18.13;13.33;;;;;;;-5.00;54.38;98806.88;10375142;28;20239;-67
2022/12/13 20:08:46;;;;;;;27.57;19.20;;;;;;;-4.86;53.88;98812.91;10356365;28;20624;-68
2022/12/13 20:13:51;;;;;;;45.37;24.23;;;;;;;-4.30;53.32;98784.47;10361915;28;20606;-67
2022/12/13 20:18:55;;;;;;;27.37;15.83;;;;;;;-5.16;54.38;98864.50;10351509;28;20271;-68
2022/12/13 20:23:57;;;;;;;26.73;17.50;;;;;;;-5.13;54.31;98843.44;10349312;28;20228;-71
2022/12/13 20:28:59;;;;;;;20.60;14.20;;;;;;;-5.10;54.95;98817.13;10365395;28;20420;-68
2022/12/13 20:34:03;;;;;;;22.40;15.90;;;;;;;-5.20;54.29;98826.53;10357299;28;20235;-68
2022/12/13 20:39:06;;;;;;;21.50;15.97;;;;;;;-5.41;54.45;98830.63;10363327;28;20248;-67
2022/12/13 20:44:10;;;;;;;21.30;13.60;;;;;;;-4.77;53.06;98820.06;10368130;28;20330;-69
2022/12/13 20:49:12;;;;;;;18.30;12.77;;;;;;;-4.32;53.07;98757.63;10353822;28;20347;-69
2022/12/13 20:54:14;;;;;;;16.97;14.57;;;;;;;-5.23;54.43;98813.72;10363525;28;20724;-68
2022/12/13 20:59:16;;;;;;;17.90;11.67;;;;;;;-5.27;53.81;98815.69;10378650;28;20228;-69
2022/12/13 21:04:20;;;;;;;21.77;15.60;;;;;;;-4.74;53.90;98770.25;10340036;28;20632;-67
2022/12/13 21:09:22;;;;;;;18.40;11.53;;;;;;;-4.91;53.35;98780.13;10373714;28;20239;-66
2022/12/13 21:14:26;;;;;;;26.97;21.07;;;;;;;-4.95;53.73;98772.66;10372901;28;20226;-67
2022/12/13 21:19:31;;;;;;;23.83;19.80;;;;;;;-4.80;53.35;98787.22;10377219;28;20327;-65
2022/12/13 21:24:40;;;;;;;24.70;17.93;;;;;;;-5.63;53.98;98816.44;10357946;28;20230;-67
2022/12/13 21:29:42;;;;;;;20.90;12.67;;;;;;;-5.39;54.28;98777.44;10342992;28;20239;-65
2022/12/13 21:34:43;;;;;;;21.37;14.60;;;;;;;-4.84;53.75;98736.16;10336681;28;20275;-66
2022/12/13 21:39:45;;;;;;;17.73;13.03;;;;;;;-5.09;53.27;98771.84;10342665;28;20232;-68
2022/12/13 21:44:47;;;;;;;19.73;14.57;;;;;;;-4.58;53.08;98726.44;10343046;28;20225;-66
2022/12/13 21:49:48;;;;;;;24.13;15.13;;;;;;;-4.41;52.92;98706.91;10359288;28;20624;-66
2022/12/13 21:54:50;;;;;;;17.10;12.80;;;;;;;-4.08;52.43;98670.50;10359772;28;20231;-65
2022/12/13 22:00:12;;;;;;;18.43;12.10;;;;;;;-5.30;53.22;98760.31;10355843;28;20706;-67
2022/12/13 22:05:14;;;;;;;19.47;13.63;;;;;;;-5.16;53.56;98752.34;10360356;28;20239;-67
2022/12/13 22:10:16;;;;;;;17.87;12.23;;;;;;;-5.03;52.98;98733.22;10359622;28;20287;-65
2022/12/13 22:15:17;;;;;;;17.37;12.30;;;;;;;-4.67;53.26;98705.38;10361884;28;20237;-65
2022/12/13 22:20:19;;;;;;;17.97;12.93;;;;;;;-4.44;52.81;98696.69;10359986;28;20240;-67
2022/12/13 22:25:20;;;;;;;15.40;11.07;;;;;;;-4.23;52.00;98723.00;10358942;28;20754;-68
2022/12/13 22:30:22;;;;;;;18.93;12.60;;;;;;;-3.61;51.61;98671.22;10358689;28;20235;-67
2022/12/13 22:35:24;;;;;;;19.87;11.77;;;;;;;-4.22;52.57;98690.66;10358629;28;20263;-66
2022/12/13 22:40:25;;;;;;;20.47;14.07;;;;;;;-4.65;52.41;98729.59;10357289;28;20241;-66
2022/12/13 22:45:27;;;;;;;17.10;11.37;;;;;;;-3.98;52.60;98658.38;10358886;28;20234;-68
2022/12/13 22:50:29;;;;;;;20.53;17.03;;;;;;;-4.67;52.54;98714.03;10358279;28;20249;-66
2022/12/13 22:55:31;;;;;;;15.90;11.93;;;;;;;-3.73;51.87;98643.41;10357258;28;20968;-67
2022/12/13 23:00:32;;;;;;;18.73;11.40;;;;;;;-4.15;52.68;98665.72;10356972;28;20236;-67
2022/12/13 23:05:34;;;;;;;17.13;12.23;;;;;;;-4.74;52.98;98708.44;10357591;28;20294;-67
2022/12/13 23:15:56;;;;;;;16.07;12.27;;;;;;;-4.76;52.15;98736.44;10357967;28;20237;-67
2022/12/13 23:20:58;;;;;;;14.60;11.13;;;;;;;-4.44;52.70;98686.22;10357993;28;20240;-67